• Join FlightAware (Why Join?)
  • Login
  • US Flag 
07:40PM EDT


 

Airport Tracker/Info


-or-


 

Live Flight TrackerFlight Track Log ✈ FLG4099 ✈ 02-May-2013 ✈ KBTV - KDTW

Flight Track Log - Related Links

Times and Time Zones

All times are in EDT time to prevent confusion due to time zone crossing. See the FLG4099 flight status page for this flight to view local times or setup timezone preferences in your user account.

Time Position Orientation Groundspeed Altitude Reporting Facility
EDT Latitude Longitude Course Direction KTS MPH feet Rate Location/Type
06:15AM 44.3965 -73.5609 253° West  Level FlightAware Approximate
06:15AM 44.3397 -73.2614 255° West 292 336 9,100  Level Boston Center
06:16AM 44.3675 -73.6961 253° West  Level FlightAware Approximate
06:16AM 44.3242 -73.3775 259° West 301 346 11,100  Level Boston Center
06:17AM 44.3475 -73.8343 259° West  Level FlightAware Approximate
06:17AM 44.3061 -73.5281 261° West 343 395 13,000  Level Boston Center
06:18AM 44.3262 -73.9721 256° West  Level FlightAware Approximate
06:18AM 44.2881 -73.6697 260° West 371 427 14,700  Level Boston Center
06:19AM 44.3011 -74.1086 256° West  Level FlightAware Approximate
06:19AM 44.2678 -73.8172 259° West 384 442 16,400  Level Boston Center
06:20AM 44.2758 -74.2449 256° West  Level FlightAware Approximate
06:20AM 44.2492 -73.9675 260° West 390 449 17,900  Level Boston Center
06:21AM 44.2504 -74.3812 255° West  Level FlightAware Approximate
06:21AM 44.2283 -74.1175 259° West 390 449 18,700  Level Boston Center
06:22AM 44.2117 -74.2533 260° West 395 455 19,800 1,200 Climbing Boston Center
06:23AM 44.1903 -74.4089 259° West 400 460 21,100 1,260 Climbing Boston Center
06:24AM 44.1708 -74.5647 260° West 405 466 22,400 900 Climbing Boston Center
06:25AM 44.1492 -74.7144 259° West 410 472 23,000 840 Climbing Boston Center
06:26AM 44.1294 -74.8728 260° West 415 478 24,100 1,260 Climbing Boston Center
06:27AM 44.1072 -75.0250 259° West 409 471 25,600 1,440 Climbing Boston Center
06:28AM 44.0872 -75.1686 259° West 404 465 27,000 1,200 Climbing Boston Center
06:29AM 44.0628 -75.3150 257° West 392 451 28,000 480 Climbing Boston Center
06:30AM 44.0422 -75.4642 259° West 392 451 28,000  Level Boston Center
06:31AM 44.0192 -75.6247 259° West 403 464 28,000  Level Boston Center
06:32AM 43.9958 -75.7908 259° West 428 493 28,000  Level Boston Center
06:33AM 43.9719 -75.9600 259° West 445 512 28,000 120 Level Boston Center
06:34AM 43.9539 -76.1319 262° West 450 518 28,300 960 Climbing Boston Center
06:35AM 43.9497 -76.2614 267° West 444 511 30,000 1,560 Climbing Boston Center
06:36AM 43.9456 -76.4486 268° West 416 479 31,500 960 Climbing Boston Center
06:37AM 43.9442 -76.5986 269° West 404 465 32,000 180 Climbing Boston Center
06:39AM 43.9333 -76.8000 266° West 420 483 32,000  Level Toronto Center
06:40AM 43.9167 -76.9667 262° West 430 495 32,000  Level Toronto Center
06:41AM 43.9000 -77.1333 262° West 440 506 32,000  Level Toronto Center
06:42AM 43.9000 -77.3000 270° West 450 518 32,000  Level Toronto Center
06:43AM 43.9000 -77.4833 270° West 460 529 32,000  Level Toronto Center
06:44AM 43.9000 -77.6500 270° West 460 529 32,000  Level Toronto Center
06:45AM 43.8833 -77.8500 263° West 460 529 32,000  Level Toronto Center
06:46AM 43.8833 -78.0167 270° West 460 529 32,000  Level Toronto Center
06:47AM 43.8667 -78.1833 262° West 470 541 32,000  Level Toronto Center
06:48AM 43.8500 -78.3667 263° West 460 529 32,000  Level Toronto Center
06:49AM 43.8667 -78.5500 277° West 460 529 32,000  Level Toronto Center
06:50AM 43.8500 -78.7333 263° West 450 518 32,000  Level Toronto Center
06:51AM 43.7833 -78.8667 235° Southwest 450 518 32,000  Level Toronto Center
06:52AM 43.7167 -79.0167 238° Southwest 440 506 32,000  Level Toronto Center
06:53AM 43.6333 -79.1333 225° Southwest 440 506 32,000  Level Toronto Center
06:54AM 43.5667 -79.2833 239° Southwest 440 506 32,000  Level Toronto Center
06:55AM 43.4833 -79.4333 233° Southwest 440 506 32,000 -300 Level Toronto Center
06:56AM 43.4167 -79.5333 227° Southwest 440 506 31,400 -900 Descending Toronto Center
06:57AM 43.3500 -79.6833 239° Southwest 460 529 30,200 -1,200 Descending Toronto Center
06:58AM 43.2667 -79.8333 233° Southwest 460 529 29,000 -1,200 Descending Toronto Center
06:59AM 43.1833 -79.9500 226° Southwest 450 518 27,800 -1,200 Descending Toronto Center
07:00AM 43.1000 -80.0833 229° Southwest 440 506 26,600 -2,220 Descending Toronto Center
07:01AM 43.0167 -80.2000 226° Southwest 430 495 23,400 -1,800 Descending Toronto Center
07:02AM 42.9500 -80.3333 236° Southwest 430 495 23,000 -240 Descending Toronto Center
07:03AM 42.8833 -80.4667 236° Southwest 430 495 23,000  Level Toronto Center
07:03AM 42.8500 -80.5889 250° West 433 498 23,000  Level Cleveland Center
07:04AM 42.7831 -80.7303 237° Southwest 438 504 23,000  Level Cleveland Center
07:05AM 42.7203 -80.8658 238° Southwest 438 504 23,000  Level Cleveland Center
07:06AM 42.6928 -81.0322 257° West 432 497 23,000  Level Cleveland Center
07:07AM 42.6733 -81.1961 261° West 444 511 23,000  Level Cleveland Center
07:08AM 42.6514 -81.3736 261° West 449 517 23,000  Level Cleveland Center
07:09AM 42.6314 -81.5397 261° West 449 517 23,000  Level Cleveland Center
07:10AM 42.6131 -81.7031 261° West 449 517 23,000  Level Cleveland Center
07:11AM 42.5928 -81.8467 259° West 444 511 23,000 -1,140 Level Cleveland Center
07:12AM 42.5722 -82.0097 260° West 444 511 20,800 -2,640 Descending Cleveland Center
07:13AM 42.5536 -82.1644 261° West 444 511 17,800 -3,120 Descending Cleveland Center
07:14AM 42.5439 -82.2514 261° West 415 478 16,300 -2,700 Descending Cleveland Center
07:14AM 42.5367 -82.3161 261° West 430 495 15,100 -3,000 Descending Cleveland Center
07:15AM 42.5272 -82.4003 261° West 398 458 13,300 -2,940 Descending Cleveland Center
07:15AM 42.5178 -82.4619 258° West 409 471 12,200 -1,200 Descending Cleveland Center
07:16AM 42.5017 -82.5575 257° West 362 417 12,000 -420 Descending Cleveland Center
07:16AM 42.4928 -82.5908 250° West 385 443 11,800 -1,500 Descending Cleveland Center
07:17AM 42.4708 -82.6408 239° Southwest 303 349 10,800 -1,920 Descending Cleveland Center
07:17AM 42.4472 -82.6908 237° Southwest 333 383 9,900 -1,680 Descending Cleveland Center
07:18AM 42.4275 -82.7378 240° Southwest 294 338 9,100 -900 Descending Cleveland Center
07:18AM 42.4058 -82.7822 237° Southwest 312 359 9,000 -840 Descending Cleveland Center
07:19AM 42.3906 -82.8211 242° Southwest 244 281 8,300 -1,440 Descending Cleveland Center
07:19AM 42.3689 -82.8625 235° Southwest 282 325 7,600 -1,200 Descending Cleveland Center
07:20AM 42.3636 -82.9183 263° West 250 288 7,000 -600 Descending Cleveland Center
07:20AM 42.3669 -82.9522 278° West 240 276 7,000  Level Cleveland Center
07:21AM 42.3825 -83.0119 289° West 251 289 7,000  Level Cleveland Center
07:21AM 42.3858 -83.0431 278° West 240 276 7,000  Level Cleveland Center
07:22AM 42.4100 -83.0889 306° West 222 255 7,000 -240 Level Cleveland Center
07:22AM 42.4219 -83.1147 302° West 229 264 6,800 -720 Descending Cleveland Center
07:23AM 42.4353 -83.1686 289° West 223 257 6,300 -600 Descending Cleveland Center
07:23AM 42.4286 -83.1881 245° Southwest 222 255 6,200 -1,020 Descending Cleveland Center
07:24AM 42.3925 -83.2147 209° Southwest 182 209 5,300 -1,560 Descending Cleveland Center
07:25AM 42.3483 -83.2381 201° Southwest 177 204 3,700 -1,380 Descending Cleveland Center
07:26AM 42.3036 -83.2728 210° Southwest 172 198 2,600 -1,140 Descending Cleveland Center